Time;durP1;ratioP1;P1;durP2;ratioP2;P2;SDS_P1;SDS_P2;PMS_P1;PMS_P2;Temp;Humidity;BMP_temperature;BMP_pressure;BME280_temperature;BME280_humidity;BME280_pressure;Samples;Min_cycle;Max_cycle;Signal;HPM_P1;HPM_P2
2021/04/12 00:01:49;;;;;;;1.10;1.00;;;9.90;99.90;;;;;;5033375;28;20203;-76
2021/04/12 00:04:33;;;;;;;1.13;1.03;;;9.90;99.90;;;;;;5057300;28;20541;-76
2021/04/12 00:07:17;;;;;;;1.20;1.10;;;9.80;99.90;;;;;;5057538;28;20177;-76
2021/04/12 00:09:47;;;;;;;2.40;1.10;;;9.70;99.90;;;;;;5056935;28;20203;-76
2021/04/12 00:12:33;;;;;;;1.10;1.00;;;9.80;99.90;;;;;;5057413;28;20170;-76
2021/04/12 00:15:13;;;;;;;0.60;0.60;;;9.70;99.90;;;;;;5034586;28;20180;-76
2021/04/12 00:17:44;;;;;;;0.40;0.33;;;9.70;99.90;;;;;;5034309;28;20175;-76
2021/04/12 00:20:30;;;;;;;1.23;0.30;;;9.80;99.90;;;;;;5020613;28;20199;-76
2021/04/12 00:23:15;;;;;;;0.20;0.20;;;9.70;99.90;;;;;;5051679;28;20176;-76
2021/04/12 00:25:50;;;;;;;0.40;0.40;;;9.80;99.90;;;;;;5057093;28;20170;-76
2021/04/12 00:28:53;;;;;;;0.20;0.20;;;9.90;99.90;;;;;;5056848;28;20550;-76
2021/04/12 00:31:34;;;;;;;0.27;0.27;;;9.80;99.90;;;;;;4978377;28;20236;-76
2021/04/12 00:34:13;;;;;;;0.20;0.20;;;9.90;99.90;;;;;;5048959;28;20191;-76
2021/04/12 00:36:48;;;;;;;0.43;0.30;;;9.80;99.90;;;;;;5056528;28;20173;-76
2021/04/12 00:39:28;;;;;;;0.20;0.20;;;9.80;99.90;;;;;;5056288;28;20181;-76
2021/04/12 00:42:05;;;;;;;0.30;0.30;;;9.90;99.90;;;;;;5028948;28;20175;-76
2021/04/12 00:45:19;;;;;;;0.20;0.20;;;9.90;99.90;;;;;;5056403;28;20520;-76
2021/04/12 00:48:17;;;;;;;0.60;0.40;;;10.00;99.90;;;;;;4997882;28;20197;-76
2021/04/12 00:50:55;;;;;;;0.20;0.20;;;9.90;99.90;;;;;;5033826;28;20695;-76
2021/04/12 00:53:44;;;;;;;0.30;0.20;;;9.80;99.90;;;;;;5056362;28;20253;-76
2021/04/12 00:56:30;;;;;;;0.30;0.30;;;9.70;99.90;;;;;;5040269;28;20230;-76
2021/04/12 00:59:09;;;;;;;0.37;0.30;;;9.60;99.90;;;;;;5056226;28;20176;-75
2021/04/12 01:02:09;;;;;;;0.30;0.30;;;9.70;99.90;;;;;;5056191;28;20188;-75
2021/04/12 01:04:57;;;;;;;0.20;0.20;;;9.60;99.90;;;;;;5008746;28;20191;-76
2021/04/12 01:07:41;;;;;;;0.20;0.20;;;9.40;99.90;;;;;;5040523;28;20213;-76
2021/04/12 01:10:10;;;;;;;0.83;0.10;;;9.30;99.90;;;;;;5055962;28;20208;-75
2021/04/12 01:12:59;;;;;;;1.07;0.10;;;9.20;99.90;;;;;;5055684;28;20178;-75
2021/04/12 01:15:47;;;;;;;0.10;0.10;;;9.00;99.90;;;;;;5054274;28;20173;-75
2021/04/12 01:18:51;;;;;;;0.10;0.10;;;8.90;99.90;;;;;;5055786;28;20173;-75
2021/04/12 01:21:34;;;;;;;0.10;0.10;;;8.80;99.90;;;;;;5054032;28;20206;-75
2021/04/12 01:24:32;;;;;;;0.00;0.00;;;8.70;99.90;;;;;;5055837;28;20169;-75
2021/04/12 01:27:15;;;;;;;0.10;0.10;;;8.80;99.90;;;;;;5034280;28;20178;-75
2021/04/12 01:30:18;;;;;;;0.20;0.20;;;8.80;99.90;;;;;;5055324;28;20208;-75
2021/04/12 01:33:25;;;;;;;0.10;0.10;;;8.70;99.90;;;;;;5055284;28;20645;-75
2021/04/12 01:36:15;;;;;;;0.10;0.10;;;8.50;99.90;;;;;;5031757;28;20266;-76
2021/04/12 01:38:57;;;;;;;0.03;0.03;;;8.50;99.90;;;;;;5047569;28;20173;-76
2021/04/12 01:41:49;;;;;;;0.10;0.10;;;8.30;99.90;;;;;;5051136;28;20757;-76
2021/04/12 01:44:51;;;;;;;0.10;0.10;;;8.20;99.90;;;;;;5031647;28;20198;-75
2021/04/12 01:47:42;;;;;;;0.17;0.10;;;8.00;99.90;;;;;;5042644;28;20192;-76
2021/04/12 01:50:43;;;;;;;1.67;0.30;;;7.80;99.90;;;;;;5026937;28;20211;-76
2021/04/12 01:53:37;;;;;;;0.10;0.10;;;7.90;99.90;;;;;;5019683;28;20186;-76
2021/04/12 01:56:11;;;;;;;1.13;0.10;;;7.80;99.90;;;;;;5043332;28;20251;-75
2021/04/12 01:59:06;;;;;;;0.10;0.03;;;7.70;99.90;;;;;;5054536;28;20174;-75
2021/04/12 02:01:46;;;;;;;0.43;0.30;;;7.70;99.90;;;;;;5015381;28;20197;-75
2021/04/12 02:04:11;;;;;;;0.33;0.20;;;7.60;99.90;;;;;;5040882;28;20174;-75
2021/04/12 02:07:07;;;;;;;0.77;0.07;;;7.50;99.90;;;;;;5054991;28;20731;-76
2021/04/12 02:10:09;;;;;;;0.10;0.10;;;7.30;99.90;;;;;;5054801;28;20186;-75
2021/04/12 02:12:57;;;;;;;1.30;0.10;;;7.40;99.90;;;;;;5054357;28;20640;-75
2021/04/12 02:15:49;;;;;;;0.10;0.10;;;7.30;99.90;;;;;;5054804;28;20273;-75
2021/04/12 02:18:35;;;;;;;0.10;0.10;;;7.10;99.90;;;;;;5029473;28;20220;-75
2021/04/12 02:21:28;;;;;;;0.00;0.00;;;6.90;99.90;;;;;;5052063;28;20209;-75
2021/04/12 02:24:08;;;;;;;0.10;0.10;;;6.90;99.90;;;;;;5046588;28;20174;-75
2021/04/12 02:26:34;;;;;;;0.10;0.10;;;6.80;99.90;;;;;;5026874;28;20213;-75
2021/04/12 02:29:27;;;;;;;0.10;0.10;;;6.80;99.90;;;;;;5054320;28;20209;-75
2021/04/12 02:32:15;;;;;;;0.23;0.20;;;6.90;99.90;;;;;;5054648;28;20176;-75
2021/04/12 02:34:48;;;;;;;0.40;0.40;;;6.90;99.90;;;;;;5038625;28;20232;-76
2021/04/12 02:37:49;;;;;;;0.33;0.30;;;6.70;99.90;;;;;;5053268;28;20174;-75
2021/04/12 02:40:36;;;;;;;0.40;0.40;;;6.90;99.90;;;;;;5027897;28;20614;-75
2021/04/12 02:43:26;;;;;;;0.30;0.20;;;6.90;99.90;;;;;;5054238;28;20223;-75
2021/04/12 02:46:13;;;;;;;0.23;0.23;;;6.90;99.90;;;;;;5054246;28;20178;-75
2021/04/12 02:48:59;;;;;;;1.13;0.67;;;6.60;99.90;;;;;;5053824;28;20186;-75
2021/04/12 02:51:51;;;;;;;0.23;0.20;;;6.60;99.90;;;;;;5053930;28;20565;-76
2021/04/12 02:54:19;;;;;;;0.10;0.10;;;6.70;99.90;;;;;;5041773;28;20178;-75
2021/04/12 02:57:07;;;;;;;0.10;0.10;;;6.80;99.90;;;;;;5032285;28;20183;-76
2021/04/12 02:59:36;;;;;;;0.57;0.30;;;6.70;99.90;;;;;;5033245;28;20234;-76
2021/04/12 03:02:40;;;;;;;0.33;0.10;;;6.70;99.90;;;;;;5034577;28;20178;-76
2021/04/12 03:05:06;;;;;;;0.20;0.20;;;6.70;99.90;;;;;;4947610;28;20643;-77
2021/04/12 03:07:40;;;;;;;0.10;0.10;;;6.80;99.90;;;;;;4954631;28;20180;-76
2021/04/12 03:10:27;;;;;;;0.10;0.10;;;6.70;99.90;;;;;;4992648;28;20217;-76
2021/04/12 03:13:11;;;;;;;0.10;0.10;;;6.60;99.90;;;;;;5051068;28;20196;-76
2021/04/12 03:15:50;;;;;;;0.10;0.10;;;6.60;99.90;;;;;;5035103;28;20181;-76
2021/04/12 03:18:57;;;;;;;0.10;0.10;;;6.60;99.90;;;;;;5039906;28;20178;-76
2021/04/12 03:22:03;;;;;;;0.30;0.30;;;6.60;99.90;;;;;;5046813;28;20226;-77
2021/04/12 03:24:35;;;;;;;0.10;0.10;;;6.50;99.90;;;;;;5053164;28;20548;-77
2021/04/12 03:27:16;;;;;;;1.10;0.30;;;6.50;99.90;;;;;;5054953;28;20177;-75
2021/04/12 03:29:46;;;;;;;0.20;0.20;;;6.40;99.90;;;;;;5054890;28;20247;-76
2021/04/12 03:32:48;;;;;;;2.73;0.20;;;6.30;99.90;;;;;;5056304;28;20178;-76
2021/04/12 03:35:29;;;;;;;0.20;0.20;;;6.30;99.90;;;;;;5054460;28;20224;-76
2021/04/12 03:38:04;;;;;;;0.87;0.30;;;6.10;99.90;;;;;;5041651;28;20555;-76
2021/04/12 03:40:36;;;;;;;0.20;0.20;;;6.10;99.90;;;;;;5052697;28;20280;-76
2021/04/12 03:43:13;;;;;;;0.70;0.30;;;6.20;99.90;;;;;;5055660;28;20174;-76
2021/04/12 03:46:07;;;;;;;0.30;0.30;;;5.90;99.90;;;;;;5056985;28;20216;-76
2021/04/12 03:48:46;;;;;;;0.27;0.27;;;6.00;99.90;;;;;;5057600;28;20185;-76
2021/04/12 03:51:50;;;;;;;0.10;0.10;;;6.00;99.90;;;;;;5056977;28;20197;-76
2021/04/12 03:54:21;;;;;;;0.30;0.20;;;6.00;99.90;;;;;;4988978;28;20288;-77
2021/04/12 03:57:15;;;;;;;0.40;0.40;;;5.90;99.90;;;;;;5065274;28;20182;-76
2021/04/12 04:00:27;;;;;;;0.20;0.20;;;6.00;99.90;;;;;;5033193;28;20275;-77
2021/04/12 04:03:25;;;;;;;0.30;0.30;;;5.90;99.90;;;;;;5031913;28;20182;-77
2021/04/12 04:06:06;;;;;;;0.20;0.20;;;5.70;99.90;;;;;;5019963;28;20191;-76
2021/04/12 04:09:05;;;;;;;3.73;0.40;;;5.60;99.90;;;;;;5046362;28;20527;-76
2021/04/12 04:12:00;;;;;;;0.30;0.23;;;5.60;99.90;;;;;;5053731;28;20208;-77
2021/04/12 04:15:07;;;;;;;0.30;0.30;;;5.60;99.90;;;;;;5054675;28;20189;-76
2021/04/12 04:18:17;;;;;;;0.40;0.40;;;5.60;99.90;;;;;;5026723;28;20194;-76
2021/04/12 04:20:49;;;;;;;0.33;0.33;;;5.60;99.90;;;;;;4993215;28;20719;-76
2021/04/12 04:23:30;;;;;;;0.40;0.40;;;5.40;99.90;;;;;;5038015;28;20244;-76
2021/04/12 04:26:11;;;;;;;0.60;0.60;;;5.40;99.90;;;;;;5037622;28;20548;-76
2021/04/12 04:29:16;;;;;;;0.50;0.40;;;5.40;99.90;;;;;;5042854;28;20207;-76
2021/04/12 04:32:19;;;;;;;0.47;0.40;;;5.50;99.90;;;;;;5039393;28;20182;-76
2021/04/12 04:35:02;;;;;;;0.50;0.50;;;5.40;99.90;;;;;;5033862;28;20182;-76
2021/04/12 04:37:35;;;;;;;0.53;0.53;;;5.40;99.90;;;;;;5041861;28;20189;-76
2021/04/12 04:40:16;;;;;;;2.47;0.60;;;5.50;99.90;;;;;;5051046;28;20186;-76
2021/04/12 04:43:06;;;;;;;0.60;0.60;;;5.50;99.90;;;;;;5036199;28;20212;-75
2021/04/12 04:46:11;;;;;;;0.60;0.60;;;5.70;99.90;;;;;;5066545;22;20575;-75
2021/04/12 04:49:05;;;;;;;0.80;0.70;;;5.60;99.90;;;;;;5052614;28;20223;-76
2021/04/12 04:52:05;;;;;;;0.50;0.50;;;5.20;99.90;;;;;;5022386;28;20196;-74
2021/04/12 04:55:08;;;;;;;1.37;1.00;;;5.10;99.90;;;;;;5053490;28;20204;-76
2021/04/12 04:57:50;;;;;;;0.63;0.60;;;5.20;99.90;;;;;;5055007;28;20169;-75
2021/04/12 05:00:20;;;;;;;0.50;0.50;;;5.30;99.90;;;;;;5054287;28;20232;-75
2021/04/12 05:02:49;;;;;;;0.60;0.60;;;5.10;99.90;;;;;;5053454;28;20188;-75
2021/04/12 05:05:33;;;;;;;0.60;0.60;;;5.10;99.90;;;;;;5043453;28;20732;-75
2021/04/12 05:08:37;;;;;;;0.50;0.50;;;5.10;99.90;;;;;;5045875;28;20234;-76
2021/04/12 05:11:26;;;;;;;0.40;0.40;;;4.90;99.90;;;;;;5043295;28;20193;-76
2021/04/12 05:14:10;;;;;;;0.40;0.40;;;4.90;99.90;;;;;;5050176;28;20232;-76
2021/04/12 05:16:50;;;;;;;0.40;0.40;;;5.10;99.90;;;;;;5048334;28;20588;-76
2021/04/12 05:19:39;;;;;;;0.60;0.50;;;5.10;99.90;;;;;;5040061;28;20632;-75
2021/04/12 05:22:17;;;;;;;0.40;0.40;;;5.00;99.90;;;;;;5050618;28;20243;-74
2021/04/12 05:24:58;;;;;;;0.43;0.43;;;5.10;99.90;;;;;;5054209;28;20205;-75
2021/04/12 05:27:38;;;;;;;0.40;0.40;;;5.10;99.90;;;;;;5053854;28;20166;-75
2021/04/12 05:30:22;;;;;;;0.40;0.40;;;5.20;99.90;;;;;;5054097;28;20209;-75
2021/04/12 05:33:36;;;;;;;1.47;0.40;;;5.30;99.90;;;;;;5054149;28;20265;-75
2021/04/12 05:36:21;;;;;;;0.40;0.40;;;5.20;99.90;;;;;;5007131;28;20221;-75
2021/04/12 05:39:14;;;;;;;0.77;0.60;;;5.00;99.90;;;;;;5053526;28;20178;-79
2021/04/12 05:41:58;;;;;;;0.50;0.50;;;4.90;99.90;;;;;;5053588;28;20614;-75
2021/04/12 05:44:50;;;;;;;0.60;0.60;;;4.90;99.90;;;;;;5053167;28;20205;-74
2021/04/12 05:47:55;;;;;;;0.60;0.60;;;4.90;99.90;;;;;;5053783;28;20186;-77
2021/04/12 05:50:58;;;;;;;0.70;0.70;;;5.00;99.90;;;;;;5058968;28;20218;-74
2021/04/12 05:53:45;;;;;;;0.70;0.70;;;5.10;99.90;;;;;;5050206;28;20188;-76
2021/04/12 05:56:49;;;;;;;1.50;0.77;;;5.10;99.90;;;;;;5053757;28;20202;-74
2021/04/12 05:59:36;;;;;;;0.90;0.80;;;5.10;99.90;;;;;;5058806;28;20225;-76
2021/04/12 06:02:33;;;;;;;1.27;0.73;;;5.10;99.90;;;;;;5041201;28;20186;-77
2021/04/12 06:05:21;;;;;;;1.07;0.90;;;5.10;99.90;;;;;;5046895;28;20285;-77
2021/04/12 06:08:12;;;;;;;1.27;1.17;;;5.10;99.90;;;;;;5053372;28;20256;-77
2021/04/12 06:11:15;;;;;;;0.90;0.80;;;5.20;99.90;;;;;;5052392;28;20231;-77
2021/04/12 06:13:59;;;;;;;0.90;0.90;;;5.20;99.90;;;;;;5045201;28;20256;-76
2021/04/12 06:16:44;;;;;;;2.07;1.10;;;5.20;99.90;;;;;;5053690;28;20173;-76
2021/04/12 06:19:34;;;;;;;2.10;0.90;;;5.30;99.90;;;;;;5053524;28;20276;-75
2021/04/12 06:22:24;;;;;;;0.80;0.80;;;5.20;99.90;;;;;;5053282;28;20205;-76
2021/04/12 06:25:00;;;;;;;2.10;1.10;;;5.20;99.90;;;;;;5050792;28;20688;-76
2021/04/12 06:27:54;;;;;;;0.70;0.70;;;5.20;99.90;;;;;;5043622;28;20176;-74
2021/04/12 06:30:58;;;;;;;1.10;1.00;;;5.20;99.90;;;;;;5052729;28;20162;-76
2021/04/12 06:33:43;;;;;;;0.97;0.97;;;4.90;99.90;;;;;;5052256;28;20192;-76
2021/04/12 06:36:18;;;;;;;1.03;0.93;;;5.00;99.90;;;;;;5051683;28;20189;-75
2021/04/12 06:38:58;;;;;;;0.80;0.73;;;5.00;99.90;;;;;;5053314;28;20242;-76
2021/04/12 06:42:02;;;;;;;0.90;0.90;;;5.00;99.90;;;;;;5053107;28;20189;-76
2021/04/12 06:44:59;;;;;;;1.27;0.90;;;5.10;99.90;;;;;;5052774;28;20687;-76
2021/04/12 06:48:02;;;;;;;1.87;1.00;;;5.00;99.90;;;;;;5051264;28;20704;-76
2021/04/12 06:50:51;;;;;;;1.23;1.23;;;5.10;99.90;;;;;;5053193;28;20260;-75
2021/04/12 06:53:55;;;;;;;1.97;1.20;;;5.10;99.90;;;;;;5052716;28;20681;-75
2021/04/12 06:56:24;;;;;;;1.33;1.30;;;5.10;99.90;;;;;;5056970;28;20169;-75
2021/04/12 06:59:08;;;;;;;1.80;1.70;;;5.10;99.90;;;;;;5057090;28;20542;-75
2021/04/12 07:01:55;;;;;;;2.40;1.80;;;5.20;99.90;;;;;;5056227;28;20214;-76
2021/04/12 07:04:51;;;;;;;1.90;1.80;;;5.10;99.90;;;;;;5055560;28;20280;-75
2021/04/12 07:07:28;;;;;;;1.80;1.70;;;5.00;99.90;;;;;;5051028;28;20219;-76
2021/04/12 07:10:27;;;;;;;2.50;2.30;;;4.90;99.90;;;;;;5056828;28;20177;-75
2021/04/12 07:13:12;;;;;;;2.13;2.03;;;4.70;99.90;;;;;;5055342;28;20191;-75
2021/04/12 07:16:03;;;;;;;2.10;1.90;;;4.70;99.90;;;;;;5055144;28;20204;-74
2021/04/12 07:18:46;;;;;;;1.70;1.60;;;4.80;99.90;;;;;;5056510;28;20753;-79
2021/04/12 07:21:31;;;;;;;1.90;1.70;;;4.70;99.90;;;;;;5051056;28;20212;-76
2021/04/12 07:24:34;;;;;;;2.23;2.03;;;4.80;99.90;;;;;;5051873;28;20173;-76
2021/04/12 07:27:44;;;;;;;3.27;2.97;;;4.90;99.90;;;;;;5055668;28;20539;-74
2021/04/12 07:30:22;;;;;;;2.00;1.90;;;4.90;99.90;;;;;;5028296;28;20662;-75
2021/04/12 07:33:25;;;;;;;2.77;2.67;;;5.00;99.90;;;;;;5056631;28;20173;-74
2021/04/12 07:36:10;;;;;;;2.00;1.90;;;5.00;99.90;;;;;;5056329;28;20196;-74
2021/04/12 07:38:58;;;;;;;2.70;2.27;;;4.70;99.90;;;;;;5056309;28;20181;-75
2021/04/12 07:41:55;;;;;;;2.40;2.20;;;4.60;99.90;;;;;;5044954;28;20564;-76
2021/04/12 07:44:32;;;;;;;2.60;2.40;;;4.60;99.90;;;;;;5058167;28;20210;-75
2021/04/12 07:47:36;;;;;;;2.00;1.90;;;4.60;99.90;;;;;;5054350;28;20169;-75
2021/04/12 07:50:02;;;;;;;1.93;1.83;;;4.50;99.90;;;;;;5056476;28;20251;-74
2021/04/12 07:52:34;;;;;;;2.53;2.33;;;4.60;99.90;;;;;;5054974;28;20173;-75
2021/04/12 07:55:27;;;;;;;2.30;2.10;;;4.60;99.90;;;;;;5056646;28;20561;-76
2021/04/12 07:58:31;;;;;;;2.00;1.90;;;4.60;99.90;;;;;;5054665;28;20592;-75
2021/04/12 08:01:31;;;;;;;1.80;1.70;;;4.70;99.90;;;;;;5059332;28;20264;-76
2021/04/12 08:04:39;;;;;;;2.00;1.90;;;4.80;99.90;;;;;;5023854;28;20193;-75
2021/04/12 08:07:49;;;;;;;2.30;2.00;;;4.90;99.90;;;;;;5027983;28;20232;-75
2021/04/12 08:10:52;;;;;;;2.37;1.93;;;5.00;99.90;;;;;;5052992;28;20641;-75
2021/04/12 08:13:43;;;;;;;2.20;2.00;;;5.00;99.90;;;;;;5055583;28;20226;-75
2021/04/12 08:16:33;;;;;;;2.00;1.90;;;5.10;99.90;;;;;;5055736;28;20197;-74
2021/04/12 08:19:13;;;;;;;1.77;1.67;;;5.20;99.90;;;;;;5055854;28;20224;-75
2021/04/12 08:21:48;;;;;;;2.07;1.90;;;5.30;99.90;;;;;;5056520;28;20185;-74
2021/04/12 08:24:27;;;;;;;2.20;2.10;;;5.20;99.90;;;;;;5054268;28;20220;-75
2021/04/12 08:27:14;;;;;;;2.90;2.07;;;5.30;99.90;;;;;;5054257;28;20227;-75
2021/04/12 08:29:49;;;;;;;2.63;2.43;;;5.40;99.90;;;;;;5054209;28;20166;-75
2021/04/12 08:32:57;;;;;;;4.43;2.73;;;5.40;99.90;;;;;;5054021;28;20182;-76
2021/04/12 08:35:26;;;;;;;2.70;2.50;;;5.40;99.90;;;;;;5055261;28;20246;-75
2021/04/12 08:38:16;;;;;;;2.70;2.50;;;5.50;99.90;;;;;;5046130;28;20262;-75
2021/04/12 08:41:02;;;;;;;2.37;2.27;;;5.60;99.90;;;;;;5050256;28;20220;-74
2021/04/12 08:43:43;;;;;;;4.30;3.90;;;5.70;99.90;;;;;;5050162;28;20655;-77
2021/04/12 08:46:27;;;;;;;3.07;2.87;;;5.70;99.90;;;;;;5052555;28;20193;-75
2021/04/12 08:48:55;;;;;;;2.83;2.63;;;5.80;99.90;;;;;;5054483;28;20248;-75
2021/04/12 08:51:36;;;;;;;2.60;2.37;;;5.70;99.90;;;;;;5055159;28;20178;-74
2021/04/12 08:54:17;;;;;;;2.90;2.60;;;5.70;99.90;;;;;;5054929;28;20248;-75
2021/04/12 08:56:50;;;;;;;3.53;3.23;;;5.70;99.90;;;;;;5055075;28;20224;-75
2021/04/12 08:59:43;;;;;;;3.40;3.20;;;5.60;99.90;;;;;;5054994;28;20176;-74
2021/04/12 09:02:29;;;;;;;3.20;3.00;;;5.50;99.90;;;;;;5044661;28;20174;-75
2021/04/12 09:05:32;;;;;;;3.80;3.50;;;5.50;99.90;;;;;;5054735;28;20191;-75
2021/04/12 09:08:21;;;;;;;4.50;4.10;;;5.60;99.90;;;;;;5053307;28;20182;-75
2021/04/12 09:11:01;;;;;;;4.13;3.83;;;5.60;99.90;;;;;;5054673;28;20205;-76
2021/04/12 09:13:36;;;;;;;4.40;4.10;;;5.60;99.90;;;;;;5054861;28;20178;-76
2021/04/12 09:16:27;;;;;;;4.53;4.13;;;5.60;99.90;;;;;;5050805;28;20204;-76
2021/04/12 09:19:12;;;;;;;3.80;3.50;;;5.50;99.90;;;;;;5048604;28;20248;-76
2021/04/12 09:22:12;;;;;;;4.03;3.73;;;5.60;99.90;;;;;;5054118;28;20209;-75
2021/04/12 09:24:51;;;;;;;4.13;3.73;;;5.70;99.90;;;;;;5048411;28;20210;-74
2021/04/12 09:27:42;;;;;;;4.30;4.00;;;5.80;99.90;;;;;;5040882;28;20174;-75
2021/04/12 09:30:29;;;;;;;4.70;4.30;;;5.80;99.90;;;;;;5051297;28;20189;-77
2021/04/12 09:33:04;;;;;;;4.50;4.20;;;6.00;99.90;;;;;;5050848;28;20176;-75
2021/04/12 09:35:54;;;;;;;4.10;3.80;;;6.00;99.90;;;;;;5053055;28;20211;-75
2021/04/12 09:38:51;;;;;;;2.37;2.27;;;6.20;99.90;;;;;;5053850;28;20299;-75
2021/04/12 09:41:20;;;;;;;2.60;2.40;;;5.90;99.90;;;;;;5052067;28;20220;-75
2021/04/12 09:44:08;;;;;;;2.80;2.60;;;5.60;99.90;;;;;;5052101;28;20176;-76
2021/04/12 09:46:49;;;;;;;3.33;3.07;;;5.60;99.90;;;;;;5051887;28;20254;-75
2021/04/12 09:49:20;;;;;;;3.20;2.63;;;5.60;99.90;;;;;;5041633;28;20209;-75
2021/04/12 09:52:09;;;;;;;2.97;2.77;;;5.50;99.90;;;;;;5054219;28;20181;-75
2021/04/12 09:55:02;;;;;;;3.40;3.20;;;5.50;99.90;;;;;;5039784;28;20194;-74
2021/04/12 09:57:52;;;;;;;3.40;3.10;;;5.60;99.90;;;;;;5052277;28;20209;-75
2021/04/12 10:00:37;;;;;;;3.30;3.10;;;5.60;99.90;;;;;;5049782;28;20186;-75
2021/04/12 10:03:19;;;;;;;3.80;3.50;;;5.50;99.90;;;;;;5048283;28;20178;-75
2021/04/12 10:06:22;;;;;;;3.70;3.40;;;5.50;99.90;;;;;;5046699;28;20194;-75
2021/04/12 10:09:33;;;;;;;3.47;3.17;;;5.50;99.90;;;;;;5052594;28;20178;-74
2021/04/12 10:12:23;;;;;;;3.77;3.47;;;5.60;99.90;;;;;;5053349;28;20181;-74
2021/04/12 10:15:13;;;;;;;3.90;3.60;;;5.60;99.90;;;;;;5051001;28;20198;-75
2021/04/12 10:17:52;;;;;;;4.33;4.03;;;5.60;99.90;;;;;;5053395;28;20260;-74
2021/04/12 10:20:32;;;;;;;4.20;3.80;;;5.70;99.90;;;;;;5050393;28;20198;-75
2021/04/12 10:23:01;;;;;;;4.57;4.27;;;5.70;99.90;;;;;;5045842;28;20188;-75
2021/04/12 10:26:02;;;;;;;4.70;4.33;;;5.60;99.90;;;;;;5051677;28;20281;-75
2021/04/12 10:28:43;;;;;;;4.10;3.80;;;5.70;99.90;;;;;;5046256;28;20204;-75
2021/04/12 10:31:12;;;;;;;4.40;4.00;;;5.80;99.90;;;;;;5036159;28;20543;-74
2021/04/12 10:33:43;;;;;;;4.63;4.13;;;5.90;99.90;;;;;;5044709;28;20217;-75
2021/04/12 10:36:18;;;;;;;3.37;3.17;;;5.80;99.90;;;;;;5051871;28;20567;-75
2021/04/12 10:38:49;;;;;;;3.83;3.50;;;5.80;99.90;;;;;;5038600;28;20196;-75
2021/04/12 10:41:24;;;;;;;4.03;3.63;;;5.70;99.90;;;;;;5052294;28;20280;-75
2021/04/12 10:43:53;;;;;;;4.33;3.30;;;5.60;99.90;;;;;;5051627;28;20176;-74
2021/04/12 10:46:39;;;;;;;5.10;4.00;;;5.50;99.90;;;;;;5070248;22;20173;-77
2021/04/12 10:49:23;;;;;;;4.30;3.90;;;5.40;99.90;;;;;;5049260;28;20557;-79
2021/04/12 10:52:05;;;;;;;4.87;4.47;;;5.40;99.90;;;;;;5054717;28;20170;-79
2021/04/12 10:54:49;;;;;;;4.30;3.93;;;5.50;99.90;;;;;;5053067;28;20257;-80
2021/04/12 10:57:42;;;;;;;4.27;3.93;;;5.60;99.90;;;;;;5053008;28;20205;-79
2021/04/12 11:00:17;;;;;;;4.40;4.10;;;5.70;99.90;;;;;;5049372;28;20219;-79
2021/04/12 11:03:14;;;;;;;4.67;4.27;;;5.70;99.90;;;;;;5052224;28;20180;-78
2021/04/12 11:05:45;;;;;;;4.83;4.43;;;5.80;99.90;;;;;;5051955;28;20174;-80
2021/04/12 11:08:39;;;;;;;4.00;3.67;;;5.90;99.90;;;;;;5054133;28;20280;-78
2021/04/12 11:11:14;;;;;;;4.60;4.20;;;5.80;99.90;;;;;;5051636;28;20209;-79
2021/04/12 11:13:53;;;;;;;4.43;3.97;;;5.80;99.90;;;;;;5053222;28;20200;-79
2021/04/12 11:16:32;;;;;;;4.30;3.90;;;5.80;99.90;;;;;;5052691;28;20252;-80
2021/04/12 11:19:13;;;;;;;3.90;3.60;;;5.60;99.90;;;;;;5041593;28;20174;-80
2021/04/12 11:22:08;;;;;;;5.97;5.40;;;5.60;99.90;;;;;;5052160;28;20276;-80
2021/04/12 11:25:04;;;;;;;7.53;6.83;;;5.80;99.90;;;;;;5033854;28;20197;-79
2021/04/12 11:27:51;;;;;;;6.17;5.57;;;5.90;99.90;;;;;;5050594;28;20198;-79
2021/04/12 11:30:24;;;;;;;6.80;6.20;;;5.90;99.90;;;;;;5053053;28;20272;-79
2021/04/12 11:33:14;;;;;;;7.67;6.97;;;6.00;99.90;;;;;;5050194;28;20198;-80
2021/04/12 11:35:52;;;;;;;6.33;5.77;;;6.10;99.90;;;;;;5053711;28;20224;-80
2021/04/12 11:38:26;;;;;;;5.17;4.77;;;6.10;99.90;;;;;;5052966;28;20309;-79
2021/04/12 11:41:17;;;;;;;5.90;5.37;;;6.00;99.90;;;;;;5055546;28;20200;-79
2021/04/12 11:43:48;;;;;;;5.60;5.10;;;6.10;99.90;;;;;;5051223;28;20177;-79
2021/04/12 11:46:36;;;;;;;5.70;5.27;;;6.10;99.90;;;;;;5071769;28;20202;-79
2021/04/12 11:49:28;;;;;;;5.57;5.17;;;6.00;99.90;;;;;;5040126;28;20178;-79
2021/04/12 11:52:10;;;;;;;5.60;5.10;;;6.10;99.90;;;;;;5050529;28;20303;-79
2021/04/12 11:55:15;;;;;;;6.30;5.80;;;6.10;99.90;;;;;;5054231;28;20170;-79
2021/04/12 11:58:00;;;;;;;7.10;5.37;;;6.20;99.90;;;;;;5057290;28;20204;-79
2021/04/12 12:00:34;;;;;;;5.47;4.97;;;6.20;99.90;;;;;;5056338;28;20573;-79
2021/04/12 12:03:37;;;;;;;6.10;5.60;;;6.20;99.90;;;;;;5072384;28;20173;-79
2021/04/12 12:06:22;;;;;;;6.50;5.90;;;6.30;99.90;;;;;;5055304;28;20181;-78
2021/04/12 12:09:04;;;;;;;8.00;7.27;;;6.40;99.90;;;;;;5047973;28;20708;-77
2021/04/12 12:12:08;;;;;;;7.87;7.07;;;6.30;99.90;;;;;;5052677;28;20205;-77
2021/04/12 12:14:55;;;;;;;6.97;6.37;;;6.40;99.90;;;;;;5017293;28;20343;-79
2021/04/12 12:17:26;;;;;;;7.07;6.47;;;6.50;99.90;;;;;;5052209;28;20290;-79
2021/04/12 12:20:03;;;;;;;6.57;5.97;;;6.50;99.90;;;;;;5048229;28;20679;-80
2021/04/12 12:23:15;;;;;;;7.27;6.57;;;6.50;99.90;;;;;;5056659;28;20261;-80
2021/04/12 12:25:50;;;;;;;6.40;5.80;;;6.60;99.90;;;;;;5034913;28;20266;-79
2021/04/12 12:28:36;;;;;;;6.50;5.90;;;6.60;99.90;;;;;;5051589;28;20193;-80
2021/04/12 12:31:35;;;;;;;5.53;5.13;;;6.60;99.90;;;;;;5072428;28;20258;-79
2021/04/12 12:34:23;;;;;;;5.30;4.60;;;6.40;99.90;;;;;;5072383;28;20180;-79
2021/04/12 12:37:04;;;;;;;5.70;5.20;;;6.60;99.90;;;;;;5052032;28;20703;-79
2021/04/12 12:39:39;;;;;;;5.93;5.50;;;6.70;99.90;;;;;;5056716;28;20261;-79
2021/04/12 12:42:28;;;;;;;6.13;4.57;;;6.70;99.90;;;;;;5051140;28;20188;-78
2021/04/12 12:45:00;;;;;;;5.07;4.60;;;6.80;99.90;;;;;;5053220;28;20190;-78
2021/04/12 12:47:27;;;;;;;5.77;5.03;;;6.40;99.90;;;;;;5071297;28;20213;-78
2021/04/12 12:49:58;;;;;;;4.77;4.37;;;6.30;99.90;;;;;;5052624;28;20174;-79
2021/04/12 12:52:31;;;;;;;4.37;3.93;;;6.20;99.90;;;;;;5055700;28;20161;-79
2021/04/12 12:55:01;;;;;;;5.27;4.80;;;6.20;99.90;;;;;;5056577;28;20292;-77
2021/04/12 12:57:33;;;;;;;4.77;4.30;;;6.30;99.90;;;;;;5051292;28;20404;-77
2021/04/12 13:00:21;;;;;;;5.33;4.83;;;6.40;99.90;;;;;;5054688;28;20228;-79
2021/04/12 13:02:48;;;;;;;4.87;4.47;;;6.40;99.90;;;;;;5054590;28;20196;-79
2021/04/12 13:05:19;;;;;;;5.00;4.60;;;6.50;99.90;;;;;;5055936;28;20276;-78
2021/04/12 13:07:47;;;;;;;5.03;4.17;;;6.50;99.90;;;;;;5051479;28;20191;-77
2021/04/12 13:10:35;;;;;;;6.37;5.50;;;6.50;99.90;;;;;;5041033;28;20186;-78
2021/04/12 13:13:01;;;;;;;4.77;4.40;;;6.50;99.90;;;;;;5071286;28;20177;-79
2021/04/12 13:15:35;;;;;;;4.80;4.40;;;6.50;99.90;;;;;;5055385;28;20256;-79
2021/04/12 13:18:26;;;;;;;5.17;4.77;;;6.40;99.90;;;;;;5055456;28;20194;-79
2021/04/12 13:21:05;;;;;;;6.33;4.93;;;6.40;99.90;;;;;;5055727;28;20205;-78
2021/04/12 13:23:43;;;;;;;5.63;4.93;;;6.50;99.90;;;;;;5055553;28;20236;-80
2021/04/12 13:26:19;;;;;;;5.90;5.40;;;6.50;99.90;;;;;;5046788;28;20177;-79
2021/04/12 13:28:45;;;;;;;4.73;4.33;;;6.50;99.90;;;;;;5055857;28;20199;-79
2021/04/12 13:31:20;;;;;;;5.03;4.63;;;6.60;99.90;;;;;;5055973;28;20181;-79
2021/04/12 13:34:00;;;;;;;4.87;4.37;;;6.50;99.90;;;;;;5054588;28;20174;-79
2021/04/12 13:36:51;;;;;;;4.57;4.17;;;6.50;99.90;;;;;;5055904;28;20519;-78
2021/04/12 13:39:41;;;;;;;5.20;4.70;;;6.50;99.90;;;;;;5051481;28;20723;-79
2021/04/12 13:42:31;;;;;;;6.30;4.60;;;6.50;99.90;;;;;;5054277;28;20212;-78
2021/04/12 13:45:01;;;;;;;5.10;4.50;;;6.50;99.90;;;;;;5053799;28;20664;-79
2021/04/12 13:47:34;;;;;;;5.70;5.20;;;6.60;99.90;;;;;;5041542;28;20240;-78
2021/04/12 13:50:09;;;;;;;5.90;5.30;;;6.60;99.90;;;;;;5070598;28;20557;-79
2021/04/12 13:52:42;;;;;;;5.50;5.10;;;6.60;99.90;;;;;;5055643;28;20208;-79
2021/04/12 13:55:11;;;;;;;4.77;4.43;;;6.40;99.90;;;;;;5054679;28;20192;-78
2021/04/12 13:57:43;;;;;;;5.00;4.53;;;6.40;99.90;;;;;;5048391;28;20281;-79
2021/04/12 14:00:22;;;;;;;5.20;4.80;;;6.40;99.90;;;;;;5055305;28;20198;-79
2021/04/12 14:03:02;;;;;;;4.60;4.10;;;6.50;99.90;;;;;;5054843;28;20177;-79
2021/04/12 14:05:32;;;;;;;4.80;4.40;;;6.50;99.90;;;;;;5049001;28;20185;-79
2021/04/12 14:08:13;;;;;;;5.47;4.97;;;6.60;99.90;;;;;;5053847;28;20285;-78
2021/04/12 14:11:05;;;;;;;6.20;5.70;;;6.60;99.90;;;;;;5054960;28;20183;-78
2021/04/12 14:13:36;;;;;;;6.30;5.70;;;6.70;99.90;;;;;;5055200;28;20178;-78
2021/04/12 14:16:18;;;;;;;5.43;4.97;;;6.90;99.90;;;;;;5070115;28;20178;-78
2021/04/12 14:19:13;;;;;;;6.07;5.50;;;6.80;99.90;;;;;;5055426;28;20233;-79
2021/04/12 14:21:48;;;;;;;5.90;5.40;;;6.70;99.90;;;;;;5054219;28;20201;-79
2021/04/12 14:24:26;;;;;;;6.57;5.97;;;6.60;99.90;;;;;;5035319;28;20256;-79
2021/04/12 14:26:59;;;;;;;6.73;6.13;;;6.60;99.90;;;;;;5050085;28;20194;-79
2021/04/12 14:29:34;;;;;;;6.63;6.13;;;6.70;99.90;;;;;;5070684;28;20323;-79
2021/04/12 14:32:12;;;;;;;7.00;6.40;;;6.60;99.90;;;;;;5054769;28;20181;-78
2021/04/12 14:34:42;;;;;;;6.43;5.10;;;6.70;99.90;;;;;;5055548;28;20658;-78